In Rescue
 
Open Full Screen Window  High Contrast Mode
Wind Gusting 15 knots
07
January 20, 2021 4:46 PM EST
Weather Information
Wind Direction
  200 °
Wind Speed
  07 kt (8 mph)
Wind Gust
  15 kt (17 mph)
Altimeter
29.96 in
Visibility
10 SM
Temperature
-04° C
25° F
Dewpoint
-08° C
18° F
Humidity
74%
Sky Condition
Scattered @ 2,400 ft
VFR

METAR KRNP 202146Z AUTO 20007G15KT 10SM SCT024 M04/M08 A2996 RMK AO2 T10421083

FAA Disclaimer: The data displayed is for advisory purposes only and is not to be used for flight planning or operations.